Hauptseite
METAR-TAF:

METAR-TAF

Flughäfen :

Ljungbyhed, Schweden

Breite: 56-04N, Länge: 013-12E, Höhe: 43 m

Beobachtung

Neuester Wetterbericht von vor 17 Minuten, um 23:20 UTC
Wind 6 kt aus Südwest
Temperatur 4°C
Luftfeuchtigkeit 100%
Luftdruck 1005 hPa
Sichtweite 10 km oder mehr

METAR: ESTL 162320Z AUTO 23006KT 9999 FEW089/// 04/04 Q1005

Zeit: 01:37 (23:37 UTC)

Prognose

Neuester Wetterbericht von vor 12 Stunden und 30 Minuten, um 11:07 UTC
Gültige Prognose vom 16 um 12 UTC bis 16 um 15 UTC
Wind 8 kt aus Nordost
Sichtweite 10 km oder mehr
Aufgelockert bewölkt in der Höhe von 3000 ft
Zeitweise
vom 16 um 12 UTC bis 16 um 15 UTC
Aufgelockert bewölkt in der Höhe von 3000 ft, Kumulonimbus.

TAF: ESTL 161107Z 1612/1615 05008KT 9999 SCT030 TEMPO 1612/1615 SCT030CB

Wetterbeobachtungen und Prognosen von mehr als 4000 Flughäfen (METAR und TAF Bericht).

Die verfügbaren Stationen werden durch gelbe und rote Markierungen auf der Karte dargestellt.

Führen Sie die Maus auf sie, um den Namen der Station zu sehen.

Darauf klicken, um die Beobachtung von Wetterbeobachtungen und Prognosen zu sehen.

Um die Karte zu ändern : klicken Sie auf den grünen Tasten mit einem schwarzen Kreuz Zum Vergrößern, auf den grünen Button mit einem Gedankenstrich zu verkleinern, oder auf die grünen Pfeile für benachbarte Karten.


METAR-TAF: